sensor_id;sensor_type;location;lat;lon;timestamp;pressure;altitude;pressure_sealevel;temperature;humidity
42847;BME280;28495;49.916;14.536;2023-04-25T00:02:52;96111.75;;;9.11;60.50
42847;BME280;28495;49.916;14.536;2023-04-25T00:08:13;96107.81;;;9.07;60.66
42847;BME280;28495;49.916;14.536;2023-04-25T00:13:34;96114.50;;;9.09;60.04
42847;BME280;28495;49.916;14.536;2023-04-25T00:18:54;96110.50;;;9.15;60.50
42847;BME280;28495;49.916;14.536;2023-04-25T00:24:15;96111.75;;;9.11;60.55
42847;BME280;28495;49.916;14.536;2023-04-25T00:29:36;96105.97;;;9.17;60.57
42847;BME280;28495;49.916;14.536;2023-04-25T00:34:57;96114.94;;;9.23;60.63
42847;BME280;28495;49.916;14.536;2023-04-25T00:40:18;96115.75;;;9.23;60.34
42847;BME280;28495;49.916;14.536;2023-04-25T00:45:39;96112.69;;;9.10;60.06
42847;BME280;28495;49.916;14.536;2023-04-25T00:51:01;96114.56;;;8.99;60.75
42847;BME280;28495;49.916;14.536;2023-04-25T00:56:22;96108.91;;;9.04;60.72
42847;BME280;28495;49.916;14.536;2023-04-25T01:01:43;96096.69;;;9.14;60.50
42847;BME280;28495;49.916;14.536;2023-04-25T01:07:04;96096.75;;;9.23;60.57
42847;BME280;28495;49.916;14.536;2023-04-25T01:12:25;96097.34;;;9.35;60.85
42847;BME280;28495;49.916;14.536;2023-04-25T01:17:46;96102.38;;;9.36;60.38
42847;BME280;28495;49.916;14.536;2023-04-25T01:23:07;96095.47;;;9.45;60.78
42847;BME280;28495;49.916;14.536;2023-04-25T01:28:28;96089.47;;;9.44;60.11
42847;BME280;28495;49.916;14.536;2023-04-25T01:33:50;96086.53;;;9.48;60.51
42847;BME280;28495;49.916;14.536;2023-04-25T01:39:11;96083.88;;;9.39;60.20
42847;BME280;28495;49.916;14.536;2023-04-25T01:44:32;96078.97;;;9.36;60.01
42847;BME280;28495;49.916;14.536;2023-04-25T01:49:53;96087.38;;;9.30;59.75
42847;BME280;28495;49.916;14.536;2023-04-25T01:55:14;96088.25;;;9.21;60.06
42847;BME280;28495;49.916;14.536;2023-04-25T02:01:04;96086.28;;;9.14;59.97
42847;BME280;28495;49.916;14.536;2023-04-25T02:06:33;96089.97;;;9.12;60.02
42847;BME280;28495;49.916;14.536;2023-04-25T02:11:54;96088.72;;;9.16;60.43
42847;BME280;28495;49.916;14.536;2023-04-25T02:17:34;96090.47;;;9.15;59.53
42847;BME280;28495;49.916;14.536;2023-04-25T02:22:54;96087.38;;;9.12;59.98
42847;BME280;28495;49.916;14.536;2023-04-25T02:28:15;96082.09;;;9.22;60.27
42847;BME280;28495;49.916;14.536;2023-04-25T02:33:36;96075.19;;;9.12;59.75
42847;BME280;28495;49.916;14.536;2023-04-25T02:38:59;96074.59;;;9.00;59.72
42847;BME280;28495;49.916;14.536;2023-04-25T02:44:20;96068.63;;;8.90;59.46
42847;BME280;28495;49.916;14.536;2023-04-25T02:49:41;96057.66;;;8.68;59.40
42847;BME280;28495;49.916;14.536;2023-04-25T02:55:02;96046.03;;;8.73;60.00
42847;BME280;28495;49.916;14.536;2023-04-25T03:00:25;96046.00;;;8.54;59.21
42847;BME280;28495;49.916;14.536;2023-04-25T03:05:46;96042.19;;;8.49;59.69
42847;BME280;28495;49.916;14.536;2023-04-25T03:11:08;96038.06;;;8.46;59.90
42847;BME280;28495;49.916;14.536;2023-04-25T03:16:29;96041.09;;;8.51;59.85
42847;BME280;28495;49.916;14.536;2023-04-25T03:21:50;96041.00;;;8.33;59.80
42847;BME280;28495;49.916;14.536;2023-04-25T03:27:11;96041.00;;;8.33;60.15
42847;BME280;28495;49.916;14.536;2023-04-25T03:32:32;96042.63;;;8.34;59.88
42847;BME280;28495;49.916;14.536;2023-04-25T03:37:52;96033.78;;;8.27;59.95
42847;BME280;28495;49.916;14.536;2023-04-25T03:43:18;96044.56;;;8.32;60.58
42847;BME280;28495;49.916;14.536;2023-04-25T03:48:46;96041.81;;;8.34;60.68
42847;BME280;28495;49.916;14.536;2023-04-25T03:54:13;96043.72;;;8.42;60.87
42847;BME280;28495;49.916;14.536;2023-04-25T03:59:49;96036.41;;;8.55;61.04
42847;BME280;28495;49.916;14.536;2023-04-25T04:05:11;96039.63;;;8.67;61.28
42847;BME280;28495;49.916;14.536;2023-04-25T04:10:38;96036.84;;;8.50;60.55
42847;BME280;28495;49.916;14.536;2023-04-25T04:16:06;96042.22;;;8.39;60.76
42847;BME280;28495;49.916;14.536;2023-04-25T04:21:28;96030.84;;;8.40;61.15
42847;BME280;28495;49.916;14.536;2023-04-25T04:26:49;96037.56;;;8.71;61.36
42847;BME280;28495;49.916;14.536;2023-04-25T04:32:37;96036.97;;;8.77;61.05
42847;BME280;28495;49.916;14.536;2023-04-25T04:37:59;96044.50;;;8.70;60.92
42847;BME280;28495;49.916;14.536;2023-04-25T04:43:24;96045.75;;;8.76;61.40
42847;BME280;28495;49.916;14.536;2023-04-25T04:49:10;96046.88;;;8.63;61.38
42847;BME280;28495;49.916;14.536;2023-04-25T04:54:50;96048.78;;;8.89;61.53
42847;BME280;28495;49.916;14.536;2023-04-25T05:00:27;96045.00;;;9.02;61.15
42847;BME280;28495;49.916;14.536;2023-04-25T05:06:09;96043.22;;;9.38;61.54
42847;BME280;28495;49.916;14.536;2023-04-25T05:11:50;96046.25;;;9.34;60.69
42847;BME280;28495;49.916;14.536;2023-04-25T05:17:40;96045.88;;;9.28;60.61
42847;BME280;28495;49.916;14.536;2023-04-25T05:23:21;96036.69;;;9.16;61.22
42847;BME280;28495;49.916;14.536;2023-04-25T05:28:41;96029.34;;;9.11;61.10
42847;BME280;28495;49.916;14.536;2023-04-25T05:34:08;96037.56;;;8.89;61.33
42847;BME280;28495;49.916;14.536;2023-04-25T05:39:42;96038.53;;;8.88;61.72
42847;BME280;28495;49.916;14.536;2023-04-25T05:45:22;96036.19;;;8.66;61.12
42847;BME280;28495;49.916;14.536;2023-04-25T05:50:58;96046.59;;;8.66;62.13
42847;BME280;28495;49.916;14.536;2023-04-25T05:56:51;96044.38;;;8.72;61.90
42847;BME280;28495;49.916;14.536;2023-04-25T06:02:12;96046.84;;;8.73;62.04
42847;BME280;28495;49.916;14.536;2023-04-25T06:07:33;96051.91;;;8.93;62.08
42847;BME280;28495;49.916;14.536;2023-04-25T06:12:56;96043.22;;;9.02;61.88
42847;BME280;28495;49.916;14.536;2023-04-25T06:18:18;96045.69;;;9.04;62.32
42847;BME280;28495;49.916;14.536;2023-04-25T06:23:39;96039.75;;;9.11;62.40
42847;BME280;28495;49.916;14.536;2023-04-25T06:29:02;96038.69;;;9.04;61.86
42847;BME280;28495;49.916;14.536;2023-04-25T06:34:24;96042.84;;;9.15;62.50
42847;BME280;28495;49.916;14.536;2023-04-25T06:39:45;96040.00;;;9.26;62.29
42847;BME280;28495;49.916;14.536;2023-04-25T06:45:08;96033.25;;;9.15;62.14
42847;BME280;28495;49.916;14.536;2023-04-25T06:50:29;96033.41;;;9.14;62.04
42847;BME280;28495;49.916;14.536;2023-04-25T06:55:50;96032.22;;;9.08;62.42
42847;BME280;28495;49.916;14.536;2023-04-25T07:01:14;96032.13;;;9.00;62.28
42847;BME280;28495;49.916;14.536;2023-04-25T07:06:36;96021.91;;;8.98;62.61
42847;BME280;28495;49.916;14.536;2023-04-25T07:12:04;96021.09;;;8.98;62.91
42847;BME280;28495;49.916;14.536;2023-04-25T07:17:26;96022.19;;;9.13;63.02
42847;BME280;28495;49.916;14.536;2023-04-25T07:22:47;96031.25;;;9.27;62.95
42847;BME280;28495;49.916;14.536;2023-04-25T07:28:08;96020.09;;;9.35;62.36
42847;BME280;28495;49.916;14.536;2023-04-25T07:33:29;96029.69;;;9.17;62.35
42847;BME280;28495;49.916;14.536;2023-04-25T07:38:50;96016.88;;;9.23;62.69
42847;BME280;28495;49.916;14.536;2023-04-25T07:44:11;96031.09;;;9.29;62.78
42847;BME280;28495;49.916;14.536;2023-04-25T07:49:34;96020.81;;;9.45;63.21
42847;BME280;28495;49.916;14.536;2023-04-25T07:54:55;96011.84;;;9.93;62.90
42847;BME280;28495;49.916;14.536;2023-04-25T08:00:28;96009.50;;;10.16;63.01
42847;BME280;28495;49.916;14.536;2023-04-25T08:06:09;96007.41;;;10.19;62.20
42847;BME280;28495;49.916;14.536;2023-04-25T08:11:42;95998.28;;;10.66;62.52
42847;BME280;28495;49.916;14.536;2023-04-25T08:17:07;95995.72;;;10.91;61.86
42847;BME280;28495;49.916;14.536;2023-04-25T08:22:33;95996.88;;;11.38;63.69
42847;BME280;28495;49.916;14.536;2023-04-25T08:28:18;95996.16;;;11.86;61.23
42847;BME280;28495;49.916;14.536;2023-04-25T08:33:41;95993.94;;;11.58;61.02
42847;BME280;28495;49.916;14.536;2023-04-25T08:39:26;96001.59;;;11.51;60.84
42847;BME280;28495;49.916;14.536;2023-04-25T08:45:10;96005.34;;;11.40;60.54
42847;BME280;28495;49.916;14.536;2023-04-25T08:50:34;96007.34;;;11.30;60.70
42847;BME280;28495;49.916;14.536;2023-04-25T08:55:57;96008.47;;;11.19;60.49
42847;BME280;28495;49.916;14.536;2023-04-25T09:01:18;96006.81;;;11.02;60.30
42847;BME280;28495;49.916;14.536;2023-04-25T09:06:44;96017.22;;;10.85;60.25
42847;BME280;28495;49.916;14.536;2023-04-25T09:12:05;96014.75;;;10.75;60.84
42847;BME280;28495;49.916;14.536;2023-04-25T09:17:26;96018.81;;;10.61;61.03
42847;BME280;28495;49.916;14.536;2023-04-25T09:22:49;96019.81;;;10.68;60.81
42847;BME280;28495;49.916;14.536;2023-04-25T09:28:10;96012.63;;;10.71;61.13
42847;BME280;28495;49.916;14.536;2023-04-25T09:33:33;96012.19;;;10.92;61.31
42847;BME280;28495;49.916;14.536;2023-04-25T09:38:59;96012.53;;;11.13;60.99
42847;BME280;28495;49.916;14.536;2023-04-25T09:44:30;96014.03;;;11.24;60.38
42847;BME280;28495;49.916;14.536;2023-04-25T09:49:53;96007.81;;;11.34;60.65
42847;BME280;28495;49.916;14.536;2023-04-25T09:55:14;95992.75;;;11.77;60.11
42847;BME280;28495;49.916;14.536;2023-04-25T10:00:38;95985.03;;;11.92;59.94
42847;BME280;28495;49.916;14.536;2023-04-25T10:06:15;95977.31;;;12.15;60.38
42847;BME280;28495;49.916;14.536;2023-04-25T10:11:39;95983.84;;;12.11;59.15
42847;BME280;28495;49.916;14.536;2023-04-25T10:17:00;95988.78;;;11.89;58.58
42847;BME280;28495;49.916;14.536;2023-04-25T10:22:39;96031.63;;;11.55;58.56
42847;BME280;28495;49.916;14.536;2023-04-25T10:28:03;96028.78;;;10.74;58.90
42847;BME280;28495;49.916;14.536;2023-04-25T10:33:38;96045.44;;;10.04;59.68
42847;BME280;28495;49.916;14.536;2023-04-25T10:39:06;96068.44;;;9.64;61.01
42847;BME280;28495;49.916;14.536;2023-04-25T10:44:29;96062.81;;;9.51;61.70
42847;BME280;28495;49.916;14.536;2023-04-25T10:49:50;96076.13;;;9.66;63.12
42847;BME280;28495;49.916;14.536;2023-04-25T10:55:11;96075.56;;;9.80;63.16
42847;BME280;28495;49.916;14.536;2023-04-25T11:00:35;96094.25;;;9.75;63.09
42847;BME280;28495;49.916;14.536;2023-04-25T11:06:23;96099.63;;;9.56;62.85
42847;BME280;28495;49.916;14.536;2023-04-25T11:11:53;96115.25;;;9.38;62.76
42847;BME280;28495;49.916;14.536;2023-04-25T11:17:15;96118.28;;;9.33;63.47
42847;BME280;28495;49.916;14.536;2023-04-25T11:22:37;96123.13;;;9.28;62.59
42847;BME280;28495;49.916;14.536;2023-04-25T11:27:59;96128.31;;;9.10;63.17
42847;BME280;28495;49.916;14.536;2023-04-25T11:33:25;96128.13;;;9.21;63.35
42847;BME280;28495;49.916;14.536;2023-04-25T11:38:47;96132.59;;;9.29;63.53
42847;BME280;28495;49.916;14.536;2023-04-25T11:44:08;96130.78;;;9.29;63.46
42847;BME280;28495;49.916;14.536;2023-04-25T11:49:32;96133.09;;;9.33;63.72
42847;BME280;28495;49.916;14.536;2023-04-25T11:54:53;96137.84;;;9.37;63.62
42847;BME280;28495;49.916;14.536;2023-04-25T12:05:38;96144.19;;;9.35;64.22
42847;BME280;28495;49.916;14.536;2023-04-25T12:11:00;96150.56;;;9.58;64.31
42847;BME280;28495;49.916;14.536;2023-04-25T12:16:22;96133.59;;;9.90;64.66
42847;BME280;28495;49.916;14.536;2023-04-25T12:21:43;96146.53;;;10.00;63.90
42847;BME280;28495;49.916;14.536;2023-04-25T12:27:17;96137.19;;;10.16;64.43
42847;BME280;28495;49.916;14.536;2023-04-25T12:32:39;96132.78;;;10.16;64.00
42847;BME280;28495;49.916;14.536;2023-04-25T12:38:00;96123.41;;;10.32;64.41
42847;BME280;28495;49.916;14.536;2023-04-25T12:43:21;96129.53;;;10.41;63.49
42847;BME280;28495;49.916;14.536;2023-04-25T12:48:43;96121.44;;;10.26;63.24
42847;BME280;28495;49.916;14.536;2023-04-25T12:54:04;96119.53;;;10.36;63.32
42847;BME280;28495;49.916;14.536;2023-04-25T12:59:26;96110.56;;;10.65;63.87
42847;BME280;28495;49.916;14.536;2023-04-25T13:04:47;96107.78;;;10.66;62.46
42847;BME280;28495;49.916;14.536;2023-04-25T13:10:08;96113.22;;;10.73;61.60
42847;BME280;28495;49.916;14.536;2023-04-25T13:15:29;96110.63;;;10.81;61.47
42847;BME280;28495;49.916;14.536;2023-04-25T13:20:49;96119.75;;;10.77;60.97
42847;BME280;28495;49.916;14.536;2023-04-25T13:26:10;96129.00;;;10.72;60.23
42847;BME280;28495;49.916;14.536;2023-04-25T13:31:31;96136.47;;;10.58;60.46
42847;BME280;28495;49.916;14.536;2023-04-25T13:36:52;96139.25;;;10.65;60.65
42847;BME280;28495;49.916;14.536;2023-04-25T13:42:13;96148.41;;;10.69;60.69
42847;BME280;28495;49.916;14.536;2023-04-25T13:47:34;96148.56;;;10.67;60.26
42847;BME280;28495;49.916;14.536;2023-04-25T13:52:55;96154.78;;;10.75;59.86
42847;BME280;28495;49.916;14.536;2023-04-25T13:58:16;96145.16;;;10.75;59.81
42847;BME280;28495;49.916;14.536;2023-04-25T14:03:37;96157.47;;;10.91;60.07
42847;BME280;28495;49.916;14.536;2023-04-25T14:08:58;96159.41;;;10.89;59.18
42847;BME280;28495;49.916;14.536;2023-04-25T14:14:22;96163.94;;;10.79;59.35
42847;BME280;28495;49.916;14.536;2023-04-25T14:19:43;96168.97;;;10.72;58.90
42847;BME280;28495;49.916;14.536;2023-04-25T14:25:06;96179.44;;;10.80;59.01
42847;BME280;28495;49.916;14.536;2023-04-25T14:30:27;96166.94;;;10.92;58.91
42847;BME280;28495;49.916;14.536;2023-04-25T14:35:48;96166.44;;;10.97;58.88
42847;BME280;28495;49.916;14.536;2023-04-25T14:41:09;96175.41;;;10.94;58.55
42847;BME280;28495;49.916;14.536;2023-04-25T14:46:30;96176.31;;;10.77;57.76
42847;BME280;28495;49.916;14.536;2023-04-25T14:51:51;96188.13;;;10.63;57.74
42847;BME280;28495;49.916;14.536;2023-04-25T14:57:12;96191.03;;;10.60;57.82
42847;BME280;28495;49.916;14.536;2023-04-25T15:02:33;96195.16;;;10.62;58.22
42847;BME280;28495;49.916;14.536;2023-04-25T15:07:55;96199.91;;;10.67;57.85
42847;BME280;28495;49.916;14.536;2023-04-25T15:13:18;96208.50;;;10.59;57.90
42847;BME280;28495;49.916;14.536;2023-04-25T15:18:39;96211.19;;;10.49;57.63
42847;BME280;28495;49.916;14.536;2023-04-25T15:24:01;96226.47;;;10.44;57.27
42847;BME280;28495;49.916;14.536;2023-04-25T15:29:22;96233.31;;;10.45;57.38
42847;BME280;28495;49.916;14.536;2023-04-25T15:34:42;96227.09;;;10.38;56.83
42847;BME280;28495;49.916;14.536;2023-04-25T15:40:05;96238.34;;;10.20;56.78
42847;BME280;28495;49.916;14.536;2023-04-25T15:45:29;96244.47;;;10.11;56.86
42847;BME280;28495;49.916;14.536;2023-04-25T15:50:52;96249.13;;;10.07;56.90
42847;BME280;28495;49.916;14.536;2023-04-25T15:56:12;96244.31;;;10.13;56.86
42847;BME280;28495;49.916;14.536;2023-04-25T16:01:33;96250.63;;;10.10;57.02
42847;BME280;28495;49.916;14.536;2023-04-25T16:06:54;96252.88;;;10.05;57.12
42847;BME280;28495;49.916;14.536;2023-04-25T16:12:15;96256.06;;;9.99;57.01
42847;BME280;28495;49.916;14.536;2023-04-25T16:17:36;96264.03;;;9.97;57.22
42847;BME280;28495;49.916;14.536;2023-04-25T16:22:58;96265.16;;;9.95;57.32
42847;BME280;28495;49.916;14.536;2023-04-25T16:28:19;96271.19;;;10.13;58.14
42847;BME280;28495;49.916;14.536;2023-04-25T16:33:40;96273.94;;;9.94;57.19
42847;BME280;28495;49.916;14.536;2023-04-25T16:39:02;96289.00;;;9.72;57.38
42847;BME280;28495;49.916;14.536;2023-04-25T16:44:23;96290.91;;;9.52;57.46
42847;BME280;28495;49.916;14.536;2023-04-25T16:49:44;96296.44;;;9.39;57.96
42847;BME280;28495;49.916;14.536;2023-04-25T16:55:06;96295.78;;;9.37;57.70
42847;BME280;28495;49.916;14.536;2023-04-25T17:00:30;96312.22;;;9.37;58.08
42847;BME280;28495;49.916;14.536;2023-04-25T17:05:52;96312.94;;;9.29;57.72
42847;BME280;28495;49.916;14.536;2023-04-25T17:11:16;96321.69;;;9.28;57.96
42847;BME280;28495;49.916;14.536;2023-04-25T17:16:38;96325.66;;;9.33;58.17
42847;BME280;28495;49.916;14.536;2023-04-25T17:21:59;96334.44;;;9.32;58.27
42847;BME280;28495;49.916;14.536;2023-04-25T17:27:20;96334.19;;;9.25;58.07
42847;BME280;28495;49.916;14.536;2023-04-25T17:32:40;96335.66;;;9.27;58.41
42847;BME280;28495;49.916;14.536;2023-04-25T17:38:01;96358.03;;;9.20;58.26
42847;BME280;28495;49.916;14.536;2023-04-25T17:43:24;96371.34;;;9.07;58.49
42847;BME280;28495;49.916;14.536;2023-04-25T17:48:46;96373.13;;;9.07;58.80
42847;BME280;28495;49.916;14.536;2023-04-25T17:54:06;96388.59;;;8.98;58.36
42847;BME280;28495;49.916;14.536;2023-04-25T17:59:28;96388.88;;;8.85;58.02
42847;BME280;28495;49.916;14.536;2023-04-25T18:04:48;96401.75;;;8.87;58.34
42847;BME280;28495;49.916;14.536;2023-04-25T18:10:09;96413.66;;;8.90;58.16
42847;BME280;28495;49.916;14.536;2023-04-25T18:15:31;96418.16;;;8.78;58.30
42847;BME280;28495;49.916;14.536;2023-04-25T18:20:52;96419.44;;;8.74;58.15
42847;BME280;28495;49.916;14.536;2023-04-25T18:26:13;96428.44;;;8.60;57.98
42847;BME280;28495;49.916;14.536;2023-04-25T18:31:35;96429.66;;;8.56;58.18
42847;BME280;28495;49.916;14.536;2023-04-25T18:36:56;96447.47;;;8.50;58.42
42847;BME280;28495;49.916;14.536;2023-04-25T18:42:18;96454.84;;;8.55;58.33
42847;BME280;28495;49.916;14.536;2023-04-25T18:47:39;96469.41;;;8.36;58.37
42847;BME280;28495;49.916;14.536;2023-04-25T18:53:00;96480.91;;;8.34;58.28
42847;BME280;28495;49.916;14.536;2023-04-25T18:58:22;96499.31;;;8.21;58.37
42847;BME280;28495;49.916;14.536;2023-04-25T19:03:43;96496.97;;;8.18;58.65
42847;BME280;28495;49.916;14.536;2023-04-25T19:09:04;96504.88;;;8.06;58.73
42847;BME280;28495;49.916;14.536;2023-04-25T19:14:27;96508.44;;;8.05;58.85
42847;BME280;28495;49.916;14.536;2023-04-25T19:19:48;96521.00;;;8.00;58.88
42847;BME280;28495;49.916;14.536;2023-04-25T19:25:09;96521.94;;;7.99;58.99
42847;BME280;28495;49.916;14.536;2023-04-25T19:30:31;96520.06;;;8.11;59.25
42847;BME280;28495;49.916;14.536;2023-04-25T19:35:53;96526.78;;;8.14;58.74
42847;BME280;28495;49.916;14.536;2023-04-25T19:41:14;96534.00;;;8.10;58.73
42847;BME280;28495;49.916;14.536;2023-04-25T19:46:35;96539.59;;;8.05;58.57
42847;BME280;28495;49.916;14.536;2023-04-25T19:51:57;96542.72;;;7.99;58.37
42847;BME280;28495;49.916;14.536;2023-04-25T19:57:17;96547.53;;;8.04;58.68
42847;BME280;28495;49.916;14.536;2023-04-25T20:02:39;96556.56;;;8.09;58.56
42847;BME280;28495;49.916;14.536;2023-04-25T20:08:00;96556.13;;;8.04;58.49
42847;BME280;28495;49.916;14.536;2023-04-25T20:13:21;96556.56;;;8.09;58.71
42847;BME280;28495;49.916;14.536;2023-04-25T20:18:42;96565.94;;;8.01;58.33
42847;BME280;28495;49.916;14.536;2023-04-25T20:24:03;96561.16;;;7.96;58.19
42847;BME280;28495;49.916;14.536;2023-04-25T20:29:24;96566.34;;;7.96;58.46
42847;BME280;28495;49.916;14.536;2023-04-25T20:34:45;96569.00;;;8.37;61.97
42847;BME280;28495;49.916;14.536;2023-04-25T20:40:07;96565.03;;;8.83;59.87
42847;BME280;28495;49.916;14.536;2023-04-25T20:45:31;96563.72;;;8.48;58.25
42847;BME280;28495;49.916;14.536;2023-04-25T20:50:54;96562.75;;;8.18;57.98
42847;BME280;28495;49.916;14.536;2023-04-25T20:56:15;96571.19;;;8.11;58.20
42847;BME280;28495;49.916;14.536;2023-04-25T21:01:36;96573.00;;;7.89;57.97
42847;BME280;28495;49.916;14.536;2023-04-25T21:06:57;96573.63;;;7.81;58.17
42847;BME280;28495;49.916;14.536;2023-04-25T21:12:19;96576.63;;;7.76;58.48
42847;BME280;28495;49.916;14.536;2023-04-25T21:17:40;96578.41;;;7.76;58.38
42847;BME280;28495;49.916;14.536;2023-04-25T21:23:01;96577.31;;;7.57;57.70
42847;BME280;28495;49.916;14.536;2023-04-25T21:28:22;96577.56;;;7.54;58.28
42847;BME280;28495;49.916;14.536;2023-04-25T21:33:43;96572.88;;;7.48;58.08
42847;BME280;28495;49.916;14.536;2023-04-25T21:39:04;96566.88;;;7.47;58.16
42847;BME280;28495;49.916;14.536;2023-04-25T21:44:25;96581.63;;;7.47;58.23
42847;BME280;28495;49.916;14.536;2023-04-25T21:49:48;96576.91;;;7.41;58.07
42847;BME280;28495;49.916;14.536;2023-04-25T21:55:08;96580.47;;;7.40;57.96
42847;BME280;28495;49.916;14.536;2023-04-25T22:00:32;96585.28;;;7.44;57.99
42847;BME280;28495;49.916;14.536;2023-04-25T22:05:54;96583.00;;;7.51;58.17
42847;BME280;28495;49.916;14.536;2023-04-25T22:11:15;96591.06;;;7.48;57.84
42847;BME280;28495;49.916;14.536;2023-04-25T22:16:37;96597.44;;;7.44;57.86
42847;BME280;28495;49.916;14.536;2023-04-25T22:21:58;96598.94;;;7.46;58.15
42847;BME280;28495;49.916;14.536;2023-04-25T22:27:19;96608.25;;;7.49;57.90
42847;BME280;28495;49.916;14.536;2023-04-25T22:32:40;96612.53;;;7.39;58.05
42847;BME280;28495;49.916;14.536;2023-04-25T22:38:01;96613.06;;;7.32;57.80
42847;BME280;28495;49.916;14.536;2023-04-25T22:43:22;96614.47;;;7.25;57.90
42847;BME280;28495;49.916;14.536;2023-04-25T22:48:44;96620.41;;;7.16;57.65
42847;BME280;28495;49.916;14.536;2023-04-25T22:54:06;96610.53;;;7.10;57.66
42847;BME280;28495;49.916;14.536;2023-04-25T22:59:26;96617.06;;;6.93;57.73
42847;BME280;28495;49.916;14.536;2023-04-25T23:04:47;96619.19;;;6.76;57.90
42847;BME280;28495;49.916;14.536;2023-04-25T23:10:10;96623.94;;;6.60;57.92
42847;BME280;28495;49.916;14.536;2023-04-25T23:15:31;96626.53;;;6.48;57.76
42847;BME280;28495;49.916;14.536;2023-04-25T23:20:52;96626.16;;;6.53;58.23
42847;BME280;28495;49.916;14.536;2023-04-25T23:26:13;96613.56;;;6.48;57.89
42847;BME280;28495;49.916;14.536;2023-04-25T23:31:34;96622.75;;;6.41;58.05
42847;BME280;28495;49.916;14.536;2023-04-25T23:36:57;96628.75;;;6.42;58.19
42847;BME280;28495;49.916;14.536;2023-04-25T23:42:18;96636.19;;;6.46;58.26
42847;BME280;28495;49.916;14.536;2023-04-25T23:47:38;96635.25;;;6.47;58.06
42847;BME280;28495;49.916;14.536;2023-04-25T23:52:59;96639.13;;;6.42;57.91
42847;BME280;28495;49.916;14.536;2023-04-25T23:58:20;96633.59;;;6.35;57.71
